Tuesday, October 23, 2018, 8:42 PM EDT
Back to Local

KBTV, Burlington International

Location: South Burlington, VT, United States Lat: 44.467
Local Time: 8:42 PM EDT ( 0:42 GMT) Lon: -73.15
Time Zone: US/Eastern Elev: 334 ft

Show me the last for .
Show Decoded

2018-10-23 20:21 METAR KBTV 240021Z 34005KT 10SM SCT004 OVC023 06/04 A2995 RMK AO2 T00560044 =
2018-10-23 19:54 METAR KBTV 232354Z 33004KT 10SM BKN018 OVC024 06/04 A2995 RMK AO2 SLP145 60009
                 T00560039 10072 20056 53000 =
2018-10-23 19:16 METAR KBTV 232316Z 33005KT 10SM SCT005 OVC029 06/04 A2995 RMK AO2 T00560044 =
2018-10-23 18:54 METAR KBTV 232254Z 35003KT 10SM OVC026 06/04 A2995 RMK AO2 SLP144 T00610044 =
2018-10-23 17:54 METAR KBTV 232154Z 35004KT 10SM OVC026 06/04 A2995 RMK AO2 RAB09E40 SLP145 P0000
                 T00610044 =
2018-10-23 16:54 METAR KBTV 232054Z 35005KT 10SM OVC028 06/04 A2995 RMK AO2 RAB42E52 SLP145 P0000
                 60009 T00610044 56008 =
2018-10-23 15:54 METAR KBTV 231954Z 00000KT 10SM OVC030 06/04 A2996 RMK AO2 RAE18 SLP147 P0001
                 T00610039 =
2018-10-23 15:03 METAR KBTV 231903Z 10005KT 10SM -RA FEW019 SCT024 OVC031 06/04 A2996 RMK AO2
                 P0001 T00610039 =
2018-10-23 14:54 METAR KBTV 231854Z 09005KT 9SM -RA SCT020 BKN024 OVC031 06/04 A2996 RMK AO2
                 SLP149 P0008 T00610039 =
2018-10-23 14:31 METAR KBTV 231831Z 12008KT 6SM -RA BKN025 OVC036 07/04 A2997 RMK AO2 P0004
                 T00670039 =
2018-10-23 13:54 METAR KBTV 231754Z 11008KT 10SM -RA FEW027 BKN036 OVC049 07/03 A2998 RMK AO2
                 RAE06B35 SLP153 P0000 60003 T00720033 10100 20028 58019 =
2018-10-23 13:44 METAR KBTV 231744Z 12006KT 10SM -RA FEW027 BKN048 OVC060 07/03 A2998 RMK AO2
                 RAE06B35 P0000 T00720033 =
2018-10-23 13:35 METAR KBTV 231735Z 12007KT 10SM -RA BKN027 BKN038 OVC065 07/04 A2998 RMK AO2
                 RAE06B35 P0000 T00720039 =
2018-10-23 12:54 METAR KBTV 231654Z 00000KT 10SM -RA SCT029 BKN036 OVC050 07/04 A3000 RMK AO2
                 RAB17 SLP162 P0003 T00720039 =
2018-10-23 11:54 METAR KBTV 231554Z 12009KT 10SM BKN085 BKN110 10/01 A3002 RMK AO2 SLP167
                 T01000006 =
2018-10-23 10:54 METAR KBTV 231454Z 11007KT 10SM SCT065 SCT110 10/01 A3003 RMK AO2 SLP172
                 T01000011 58013 =
2018-10-23 09:54 METAR KBTV 231354Z 10006KT 10SM FEW075 FEW110 08/01 A3005 RMK AO2 SLP178
                 T00830011 =
2018-10-23 08:54 METAR KBTV 231254Z 10004KT 10SM FEW075 FEW090 06/01 A3006 RMK AO2 SLP183
                 T00610011 =
2018-10-23 07:54 METAR KBTV 231154Z 00000KT 10SM SCT080 03/01 A3007 RMK AO2 SLP186 T00330006
                 10067 20022 55003 =
2018-10-23 06:54 METAR KBTV 231054Z 00000KT 10SM SCT080 03/01 A3007 RMK AO2 SLP186 T00280006 =
2018-10-23 05:54 METAR KBTV 230954Z 00000KT 10SM SCT050 BKN060 OVC080 04/02 A3008 RMK AO2 SLP188
                 T00440017 =
2018-10-23 04:54 METAR KBTV 230854Z 00000KT 10SM FEW060 BKN080 05/01 A3008 RMK AO2 SLP190
                 T00500011 57006 =
2018-10-23 03:54 METAR KBTV 230754Z 00000KT 10SM FEW036 OVC075 06/01 A3009 RMK AO2 SLP191
                 T00560011 =
2018-10-23 02:54 METAR KBTV 230654Z 00000KT 10SM BKN038 OVC080 06/01 A3009 RMK AO2 SLP194
                 T00610011 =
2018-10-23 01:54 METAR KBTV 230554Z 18005KT 10SM OVC040 06/01 A3010 RMK AO2 SLP195 60000
                 T00610011 10067 20061 56006 =
2018-10-23 00:54 METAR KBTV 230454Z 18005KT 10SM OVC045 06/01 A3011 RMK AO2 RAB42E54 SLP197 P0000
                 T00610011 400720017 =
2018-10-22 23:54 METAR KBTV 230354Z 19006KT 10SM OVC045 07/01 A3010 RMK AO2 SLP197 LAST T00670006
                 =
2018-10-22 22:54 METAR KBTV 230254Z 19006KT 10SM OVC048 06/01 A3012 RMK AO2 SLP202 T00610011
                 51005 =
2018-10-22 21:54 METAR KBTV 230154Z 18007KT 10SM SCT060 OVC080 06/01 A3011 RMK AO2 SLP200
                 T00610006 =
2018-10-22 20:54 METAR KBTV 230054Z 17003KT 10SM SCT044 OVC055 06/01 A3012 RMK AO2 SLP201
                 T00610006 =

Support USWX by starting your Amazon purchase here.